createdAt,value
2018-07-08T00:00:12.700Z,39.22
2018-07-08T00:01:21.865Z,39.12
2018-07-08T00:02:31.021Z,39.12
2018-07-08T00:03:40.179Z,39.32
2018-07-08T00:04:49.847Z,39.2
2018-07-08T00:05:59.776Z,39.12
2018-07-08T00:07:09.201Z,39.2
2018-07-08T00:08:18.375Z,39.11
2018-07-08T00:09:28.047Z,39.2
2018-07-08T00:10:37.478Z,39.12
2018-07-08T00:11:46.895Z,39.2
2018-07-08T00:12:56.319Z,39.29
2018-07-08T00:14:06.252Z,39.2
2018-07-08T00:15:15.406Z,39.2
2018-07-08T00:16:24.062Z,39.2
2018-07-08T00:17:33.220Z,39.2
2018-07-08T00:18:42.639Z,39.11
2018-07-08T00:19:52.050Z,39.29
2018-07-08T00:21:01.447Z,39.01
2018-07-08T00:22:10.876Z,39.11
2018-07-08T00:23:20.310Z,39.2
2018-07-08T00:24:29.990Z,39.2
2018-07-08T00:25:39.430Z,39.11
2018-07-08T00:26:48.849Z,39.2
2018-07-08T00:27:58.790Z,39.39
2018-07-08T00:29:07.940Z,39.49
2018-07-08T00:30:17.368Z,39.39
2018-07-08T00:31:27.053Z,39.29
2018-07-08T00:32:36.991Z,39.39
2018-07-08T00:33:46.450Z,39.39
2018-07-08T00:34:56.401Z,39.59
2018-07-08T00:36:06.071Z,39.59
2018-07-08T00:37:15.239Z,39.59
2018-07-08T00:38:24.681Z,39.59
2018-07-08T00:39:33.840Z,39.69
2018-07-08T00:40:43.525Z,39.69
2018-07-08T00:41:52.202Z,39.69
2018-07-08T00:43:01.609Z,39.69
2018-07-08T00:44:10.802Z,39.69
2018-07-08T00:45:19.747Z,39.59
2018-07-08T00:46:29.174Z,39.49
2018-07-08T00:47:39.523Z,39.59
2018-07-08T00:48:49.477Z,39.59
2018-07-08T00:49:59.182Z,39.39
2018-07-08T00:51:08.117Z,39.69
2018-07-08T00:52:17.566Z,39.69
2018-07-08T00:53:27.256Z,39.2
2018-07-08T00:54:36.679Z,39.49
2018-07-08T00:55:45.849Z,39.59
2018-07-08T00:56:55.812Z,39.29
2018-07-08T00:58:05.220Z,39.39
2018-07-08T00:59:14.364Z,39.49
2018-07-08T01:00:24.018Z,39.2
2018-07-08T01:01:33.484Z,39.29
2018-07-08T01:02:43.293Z,39.11
2018-07-08T01:03:52.710Z,39.11
2018-07-08T01:05:02.653Z,39.39
2018-07-08T01:06:12.074Z,39.11
2018-07-08T01:07:21.504Z,39.2
2018-07-08T01:08:30.932Z,39.11
2018-07-08T01:09:40.673Z,39.2
2018-07-08T01:10:50.106Z,39.39
2018-07-08T01:11:59.525Z,39.29
2018-07-08T01:13:08.952Z,39.2
2018-07-08T01:14:18.387Z,39.11
2018-07-08T01:15:28.073Z,39.2
2018-07-08T01:16:38.015Z,39.11
2018-07-08T01:17:47.460Z,39.2
2018-07-08T01:18:56.402Z,39.29
2018-07-08T01:20:05.826Z,39.28
2018-07-08T01:21:15.258Z,39.29
2018-07-08T01:22:24.213Z,39.08
2018-07-08T01:23:33.643Z,39.01
2018-07-08T01:24:42.539Z,39.2
2018-07-08T01:25:51.965Z,38.89
2018-07-08T01:27:01.632Z,39.01
2018-07-08T01:28:10.808Z,38.91
2018-07-08T01:29:20.489Z,39.08
2018-07-08T01:30:29.643Z,39.18
2018-07-08T01:31:39.062Z,39.01
2018-07-08T01:32:48.485Z,39.08
2018-07-08T01:33:57.434Z,38.99
2018-07-08T01:35:06.874Z,39.08
2018-07-08T01:36:15.781Z,39.01
2018-07-08T01:37:24.950Z,39.28
2018-07-08T01:38:34.354Z,39.08
2018-07-08T01:39:43.771Z,38.79
2018-07-08T01:40:53.171Z,38.79
2018-07-08T01:42:02.599Z,39.18
2018-07-08T01:43:11.257Z,38.79
2018-07-08T01:44:20.974Z,39.08
2018-07-08T01:45:31.028Z,38.89
2018-07-08T01:46:40.446Z,38.79
2018-07-08T01:47:49.629Z,38.79
2018-07-08T01:48:59.038Z,39.08
2018-07-08T01:50:07.958Z,38.79
2018-07-08T01:51:17.412Z,38.99
2018-07-08T01:52:26.626Z,38.99
2018-07-08T01:53:35.549Z,39.08
2018-07-08T01:54:45.240Z,38.79
2018-07-08T01:55:54.656Z,38.89
2018-07-08T01:57:04.058Z,38.99
2018-07-08T01:58:13.206Z,38.99
2018-07-08T01:59:22.871Z,38.89
2018-07-08T02:00:32.802Z,38.89
2018-07-08T02:01:42.002Z,38.89
2018-07-08T02:02:51.990Z,38.89
2018-07-08T02:04:01.417Z,38.89
2018-07-08T02:05:10.847Z,38.99
2018-07-08T02:06:20.003Z,38.79
2018-07-08T02:07:29.181Z,38.79
2018-07-08T02:08:38.595Z,39.28
2018-07-08T02:09:48.047Z,38.89
2018-07-08T02:10:57.206Z,39.08
2018-07-08T02:12:06.892Z,38.99
2018-07-08T02:13:16.053Z,38.99
2018-07-08T02:14:25.222Z,38.79
2018-07-08T02:15:34.928Z,38.99
2018-07-08T02:16:44.093Z,38.99
2018-07-08T02:17:53.300Z,38.99
2018-07-08T02:19:02.586Z,38.79
2018-07-08T02:20:11.745Z,38.79
2018-07-08T02:21:20.895Z,38.79
2018-07-08T02:22:30.331Z,39.08
2018-07-08T02:23:40.258Z,38.99
2018-07-08T02:24:49.940Z,39.08
2018-07-08T02:25:59.347Z,38.79
2018-07-08T02:27:09.277Z,38.79
2018-07-08T02:28:19.196Z,38.79
2018-07-08T02:29:28.376Z,39.08
2018-07-08T02:30:37.802Z,38.79
2018-07-08T02:31:47.559Z,38.99
2018-07-08T02:32:57.236Z,39.08
2018-07-08T02:34:07.196Z,38.89
2018-07-08T02:35:16.351Z,38.79
2018-07-08T02:36:25.522Z,38.99
2018-07-08T02:37:35.015Z,39.08
2018-07-08T02:38:44.966Z,38.79
2018-07-08T02:39:54.681Z,38.89
2018-07-08T02:41:04.416Z,38.79
2018-07-08T02:42:14.382Z,38.89
2018-07-08T02:43:23.555Z,39.08
2018-07-08T02:44:33.485Z,39.08
2018-07-08T02:45:43.460Z,39.18
2018-07-08T02:46:53.395Z,39.18
2018-07-08T02:48:03.105Z,38.89
2018-07-08T02:49:12.803Z,39.18
2018-07-08T02:50:22.248Z,39.18
2018-07-08T02:51:31.931Z,39.06
2018-07-08T02:52:41.787Z,39.18
2018-07-08T02:53:51.726Z,38.89
2018-07-08T02:55:01.154Z,39.08
2018-07-08T02:56:10.585Z,38.79
2018-07-08T02:57:20.284Z,38.79
2018-07-08T02:58:30.004Z,38.99
2018-07-08T02:59:39.440Z,38.99
2018-07-08T03:00:48.877Z,38.99
2018-07-08T03:01:58.841Z,38.78
2018-07-08T03:03:08.544Z,38.96
2018-07-08T03:04:17.722Z,38.79
2018-07-08T03:05:27.665Z,38.89
2018-07-08T03:06:37.101Z,38.99
2018-07-08T03:07:46.529Z,39.26
2018-07-08T03:08:56.332Z,38.87
2018-07-08T03:10:05.994Z,38.87
2018-07-08T03:11:15.688Z,39.06
2018-07-08T03:12:25.111Z,39.26
2018-07-08T03:13:35.061Z,38.78
2018-07-08T03:14:45.035Z,38.78
2018-07-08T03:15:54.716Z,38.78
2018-07-08T03:17:04.399Z,38.96
2018-07-08T03:18:14.152Z,38.87
2018-07-08T03:19:23.592Z,39.16
2018-07-08T03:20:33.020Z,39.16
2018-07-08T03:21:42.440Z,39.16
2018-07-08T03:22:51.856Z,39.16
2018-07-08T03:24:01.530Z,38.96
2018-07-08T03:25:10.693Z,39.06
2018-07-08T03:26:20.122Z,39.06
2018-07-08T03:27:29.808Z,39.06
2018-07-08T03:28:38.724Z,39.16
2018-07-08T03:29:48.125Z,39.36
2018-07-08T03:30:57.547Z,39.06
2018-07-08T03:32:07.240Z,39.36
2018-07-08T03:33:17.115Z,39.36
2018-07-08T03:34:26.608Z,39.16
2018-07-08T03:35:35.516Z,39.45
2018-07-08T03:36:45.434Z,39.36
2018-07-08T03:37:54.862Z,39.36
2018-07-08T03:39:04.296Z,39.26
2018-07-08T03:40:13.733Z,39.36
2018-07-08T03:41:23.399Z,39.26
2018-07-08T03:42:32.573Z,39.36
2018-07-08T03:43:41.234Z,39.55
2018-07-08T03:44:50.637Z,39.65
2018-07-08T03:45:59.533Z,39.55
2018-07-08T03:47:08.681Z,39.55
2018-07-08T03:48:18.090Z,39.55
2018-07-08T03:49:27.505Z,39.55
2018-07-08T03:50:36.671Z,39.55
2018-07-08T03:51:46.074Z,39.65
2018-07-08T03:52:55.524Z,39.45
2018-07-08T03:54:04.680Z,39.65
2018-07-08T03:55:13.851Z,39.55
2018-07-08T03:56:23.277Z,39.55
2018-07-08T03:57:33.208Z,39.45
2018-07-08T03:58:42.390Z,39.26
2018-07-08T03:59:51.797Z,39.45
2018-07-08T04:01:01.477Z,39.45
2018-07-08T04:02:10.955Z,39.16
2018-07-08T04:03:20.101Z,39.45
2018-07-08T04:04:29.774Z,39.45
2018-07-08T04:05:39.198Z,39.26
2018-07-08T04:06:48.873Z,39.45
2018-07-08T04:07:57.784Z,39.55
2018-07-08T04:09:07.201Z,39.45
2018-07-08T04:10:16.434Z,39.55
2018-07-08T04:11:25.851Z,39.55
2018-07-08T04:12:34.508Z,39.55
2018-07-08T04:13:43.937Z,39.65
2018-07-08T04:14:53.615Z,39.65
2018-07-08T04:16:02.537Z,39.45
2018-07-08T04:17:11.695Z,39.55
2018-07-08T04:18:20.595Z,39.55
2018-07-08T04:19:30.514Z,39.55
2018-07-08T04:20:39.937Z,39.55
2018-07-08T04:21:49.610Z,39.55
2018-07-08T04:22:58.776Z,39.45
2018-07-08T04:24:07.434Z,39.36
2018-07-08T04:25:16.875Z,39.36
2018-07-08T04:26:26.319Z,39.36
2018-07-08T04:27:35.483Z,39.36
2018-07-08T04:28:44.901Z,39.16
2018-07-08T04:29:54.066Z,39.16
2018-07-08T04:31:03.755Z,39.16
2018-07-08T04:32:12.947Z,39.36
2018-07-08T04:33:22.681Z,39.16
2018-07-08T04:34:32.110Z,39.36
2018-07-08T04:35:41.284Z,39.26
2018-07-08T04:36:50.952Z,39.06
2018-07-08T04:38:00.376Z,39.16
2018-07-08T04:39:09.803Z,38.96
2018-07-08T04:40:18.994Z,38.78
2018-07-08T04:41:28.678Z,39.16
2018-07-08T04:42:37.841Z,39.06
2018-07-08T04:43:47.252Z,39.16
2018-07-08T04:44:56.404Z,38.96
2018-07-08T04:46:05.297Z,39.16
2018-07-08T04:47:13.950Z,39.16
2018-07-08T04:48:23.371Z,39.16
2018-07-08T04:49:32.787Z,38.87
2018-07-08T04:50:41.715Z,39.16
2018-07-08T04:51:51.642Z,39.16
2018-07-08T04:53:01.060Z,38.96
2018-07-08T04:54:10.477Z,39.16
2018-07-08T04:55:19.656Z,39.16
2018-07-08T04:56:29.128Z,39.16
2018-07-08T04:57:38.306Z,39.16
2018-07-08T04:58:47.730Z,39.16
2018-07-08T04:59:57.343Z,39.16
2018-07-08T05:01:07.048Z,39.16
2018-07-08T05:02:16.454Z,38.96
2018-07-08T05:03:25.619Z,39.16
2018-07-08T05:04:35.308Z,39.16
2018-07-08T05:05:45.274Z,39.16
2018-07-08T05:06:54.484Z,39.16
2018-07-08T05:08:04.154Z,38.95
2018-07-08T05:09:13.311Z,39.26
2018-07-08T05:10:22.471Z,39.16
2018-07-08T05:11:32.151Z,39.43
2018-07-08T05:12:41.577Z,39.36
2018-07-08T05:13:51.023Z,39.14
2018-07-08T05:15:00.197Z,39.24
2018-07-08T05:16:09.897Z,39.62
2018-07-08T05:17:19.028Z,39.55
2018-07-08T05:18:28.691Z,39.53
2018-07-08T05:19:37.602Z,39.62
2018-07-08T05:20:47.045Z,39.62
2018-07-08T05:21:56.483Z,39.53
2018-07-08T05:23:05.880Z,39.62
2018-07-08T05:24:15.594Z,39.65
2018-07-08T05:25:25.267Z,39.62
2018-07-08T05:26:34.425Z,39.62
2018-07-08T05:27:44.112Z,39.53
2018-07-08T05:28:53.007Z,39.55
2018-07-08T05:30:02.187Z,39.62
2018-07-08T05:31:11.622Z,39.62
2018-07-08T05:32:21.299Z,39.43
2018-07-08T05:33:30.714Z,39.62
2018-07-08T05:34:40.371Z,39.65
2018-07-08T05:35:50.087Z,39.24
2018-07-08T05:36:59.259Z,39.34
2018-07-08T05:38:08.677Z,39.34
2018-07-08T05:39:18.670Z,39.04
2018-07-08T05:40:27.815Z,39.04
2018-07-08T05:41:37.213Z,39.14
2018-07-08T05:42:47.195Z,39.04
2018-07-08T05:43:56.665Z,38.95
2018-07-08T05:45:06.092Z,38.95
2018-07-08T05:46:15.254Z,38.95
2018-07-08T05:47:24.171Z,39.14
2018-07-08T05:48:34.099Z,39.14
2018-07-08T05:49:43.033Z,39.14
2018-07-08T05:50:52.698Z,39.14
2018-07-08T05:52:02.119Z,38.95
2018-07-08T05:53:11.305Z,39.14
2018-07-08T05:54:20.979Z,39.14
2018-07-08T05:55:30.673Z,38.85
2018-07-08T05:56:40.343Z,39.04
2018-07-08T05:57:49.771Z,38.85
2018-07-08T05:58:58.925Z,39.04
2018-07-08T06:00:08.591Z,38.85
2018-07-08T06:01:17.756Z,38.95
2018-07-08T06:02:27.165Z,38.76
2018-07-08T06:03:36.842Z,38.87
2018-07-08T06:04:46.343Z,38.76
2018-07-08T06:05:56.261Z,38.66
2018-07-08T06:07:05.933Z,38.96
2018-07-08T06:08:15.351Z,38.78
2018-07-08T06:09:24.580Z,38.87
2018-07-08T06:10:33.739Z,38.76
2018-07-08T06:11:43.403Z,38.85
2018-07-08T06:12:53.105Z,38.78
2018-07-08T06:14:02.521Z,38.96
2018-07-08T06:15:11.946Z,38.78
2018-07-08T06:16:21.378Z,38.76
2018-07-08T06:17:30.788Z,38.78
2018-07-08T06:18:39.956Z,38.95
2018-07-08T06:19:49.370Z,38.95
2018-07-08T06:20:58.265Z,38.68
2018-07-08T06:22:07.670Z,38.85
2018-07-08T06:23:17.089Z,38.76
2018-07-08T06:24:26.234Z,38.78
2018-07-08T06:25:35.382Z,38.78
2018-07-08T06:26:44.803Z,38.78
2018-07-08T06:27:53.454Z,38.96
2018-07-08T06:29:02.649Z,38.68
2018-07-08T06:30:11.805Z,38.85
2018-07-08T06:31:21.477Z,38.96
2018-07-08T06:32:30.369Z,38.95
2018-07-08T06:33:39.304Z,39.06
2018-07-08T06:34:49.229Z,39.06
2018-07-08T06:35:58.392Z,39.06
2018-07-08T06:37:07.826Z,38.95
2018-07-08T06:38:16.986Z,38.78
2018-07-08T06:39:26.402Z,38.96
2018-07-08T06:40:35.580Z,38.95
2018-07-08T06:41:45.276Z,38.96
2018-07-08T06:42:54.443Z,38.96
2018-07-08T06:44:04.135Z,38.96
2018-07-08T06:45:13.560Z,38.87
2018-07-08T06:46:23.505Z,38.68
2018-07-08T06:47:32.420Z,38.96
2018-07-08T06:48:41.841Z,38.96
2018-07-08T06:49:51.515Z,38.68
2018-07-08T06:51:01.460Z,38.87
2018-07-08T06:52:10.617Z,38.87
2018-07-08T06:53:20.532Z,38.96
2018-07-08T06:54:29.986Z,38.87
2018-07-08T06:55:40.134Z,38.68
2018-07-08T06:56:48.831Z,38.87
2018-07-08T06:57:58.399Z,38.87
2018-07-08T06:59:07.625Z,38.68
2018-07-08T07:00:16.536Z,38.87
2018-07-08T07:01:26.208Z,38.96
2018-07-08T07:02:35.897Z,38.96
2018-07-08T07:03:45.319Z,38.87
2018-07-08T07:04:54.734Z,38.87
2018-07-08T07:06:03.884Z,38.96
2018-07-08T07:07:12.791Z,38.78
2018-07-08T07:08:21.957Z,38.68
2018-07-08T07:09:31.367Z,38.78
2018-07-08T07:10:41.302Z,38.87
2018-07-08T07:11:50.987Z,38.78
2018-07-08T07:13:00.427Z,38.87
2018-07-08T07:14:10.103Z,38.87
2018-07-08T07:15:19.528Z,38.68
2018-07-08T07:16:28.683Z,38.68
2018-07-08T07:17:38.403Z,38.68
2018-07-08T07:18:48.089Z,38.78
2018-07-08T07:19:57.780Z,38.68
2018-07-08T07:21:07.206Z,38.58
2018-07-08T07:22:16.658Z,38.78
2018-07-08T07:23:25.548Z,38.58
2018-07-08T07:24:35.213Z,38.68
2018-07-08T07:25:44.433Z,38.48
2018-07-08T07:26:54.117Z,38.39
2018-07-08T07:28:03.773Z,38.29
2018-07-08T07:29:12.665Z,38.48
2018-07-08T07:30:22.088Z,38.39
2018-07-08T07:31:31.788Z,38.58
2018-07-08T07:32:40.943Z,38.58
2018-07-08T07:33:50.357Z,38.58
2018-07-08T07:35:00.289Z,38.78
2018-07-08T07:36:09.956Z,38.58
2018-07-08T07:37:19.796Z,38.68
2018-07-08T07:38:29.511Z,38.48
2018-07-08T07:39:38.407Z,38.39
2018-07-08T07:40:47.812Z,38.39
2018-07-08T07:41:57.243Z,38.19
2018-07-08T07:43:06.156Z,38.19
2018-07-08T07:44:15.580Z,38.21
2018-07-08T07:45:25.659Z,38.31
2018-07-08T07:46:35.622Z,38.19
2018-07-08T07:47:45.562Z,38.31
2018-07-08T07:48:55.245Z,38.39
2018-07-08T07:50:04.920Z,38.19
2018-07-08T07:51:14.444Z,38.12
2018-07-08T07:52:23.969Z,38.12
2018-07-08T07:53:33.391Z,37.92
2018-07-08T07:54:42.877Z,38.02
2018-07-08T07:55:52.548Z,38.12
2018-07-08T07:57:01.701Z,38.02
2018-07-08T07:58:11.640Z,37.92
2018-07-08T07:59:21.327Z,37.92
2018-07-08T08:00:30.757Z,37.92
2018-07-08T08:01:40.165Z,37.92
2018-07-08T08:02:49.592Z,37.82
2018-07-08T08:03:58.488Z,37.82
2018-07-08T08:05:08.194Z,37.92
2018-07-08T08:06:17.617Z,37.82
2018-07-08T08:07:26.521Z,37.82
2018-07-08T08:08:36.434Z,37.92
2018-07-08T08:09:45.871Z,37.82
2018-07-08T08:10:55.545Z,37.82
2018-07-08T08:12:05.243Z,38.02
2018-07-08T08:13:14.666Z,37.92
2018-07-08T08:14:23.835Z,37.82
2018-07-08T08:15:33.274Z,37.82
2018-07-08T08:16:42.960Z,37.82
2018-07-08T08:17:52.640Z,37.92
2018-07-08T08:19:02.338Z,38.12
2018-07-08T08:20:11.765Z,37.92
2018-07-08T08:21:20.668Z,38.12
2018-07-08T08:22:29.830Z,38.12
2018-07-08T08:23:39.008Z,38.02
2018-07-08T08:24:48.697Z,38.02
2018-07-08T08:25:58.368Z,37.82
2018-07-08T08:27:08.051Z,38.21
2018-07-08T08:28:17.760Z,37.73
2018-07-08T08:29:27.069Z,38.02
2018-07-08T08:30:36.498Z,37.92
2018-07-08T08:31:45.915Z,37.82
2018-07-08T08:32:54.821Z,37.92
2018-07-08T08:34:04.040Z,37.82
2018-07-08T08:35:13.725Z,37.82
2018-07-08T08:36:22.663Z,37.82
2018-07-08T08:37:32.342Z,37.82
2018-07-08T08:38:41.778Z,37.92
2018-07-08T08:39:51.193Z,38.02
2018-07-08T08:41:00.664Z,37.92
2018-07-08T08:42:10.086Z,37.92
2018-07-08T08:43:19.503Z,38.21
2018-07-08T08:44:28.921Z,37.92
2018-07-08T08:45:38.321Z,38.02
2018-07-08T08:46:47.757Z,38.02
2018-07-08T08:47:57.475Z,37.92
2018-07-08T08:49:06.692Z,37.92
2018-07-08T08:50:15.883Z,38.02
2018-07-08T08:51:25.563Z,37.92
2018-07-08T08:52:35.302Z,37.82
2018-07-08T08:53:44.411Z,38.21
2018-07-08T08:54:53.607Z,38.02
2018-07-08T08:56:03.348Z,38.02
2018-07-08T08:57:12.801Z,38.21
2018-07-08T08:58:22.342Z,37.82
2018-07-08T08:59:32.107Z,37.92
2018-07-08T09:00:42.024Z,38.02
2018-07-08T09:01:51.434Z,38.12
2018-07-08T09:03:00.873Z,38.12
2018-07-08T09:04:10.023Z,38.02
2018-07-08T09:05:19.435Z,37.92
2018-07-08T09:06:29.182Z,37.92
2018-07-08T09:07:38.864Z,38.02
2018-07-08T09:08:48.325Z,38.02
2018-07-08T09:09:57.990Z,37.92
2018-07-08T09:11:07.405Z,38.12
2018-07-08T09:12:17.089Z,37.92
2018-07-08T09:13:26.245Z,38.02
2018-07-08T09:14:35.416Z,37.82
2018-07-08T09:15:44.568Z,38.02
2018-07-08T09:16:53.735Z,38.02
2018-07-08T09:18:03.160Z,37.92
2018-07-08T09:19:13.105Z,37.92
2018-07-08T09:20:24.385Z,38.21
2018-07-08T09:21:33.644Z,37.73
2018-07-08T09:22:43.843Z,38.02
2018-07-08T09:23:54.135Z,37.73
2018-07-08T09:25:03.701Z,37.82
2018-07-08T09:26:13.477Z,37.82
2018-07-08T09:27:23.054Z,37.82
2018-07-08T09:28:32.783Z,37.82
2018-07-08T09:29:42.822Z,37.82
2018-07-08T09:30:52.696Z,37.73
2018-07-08T09:32:02.178Z,37.63
2018-07-08T09:33:11.922Z,37.73
2018-07-08T09:34:21.338Z,37.63
2018-07-08T09:35:30.821Z,37.53
2018-07-08T09:36:40.249Z,37.53
2018-07-08T09:37:49.676Z,37.43
2018-07-08T09:38:59.992Z,37.45
2018-07-08T09:40:09.253Z,37.45
2018-07-08T09:41:17.885Z,37.35
2018-07-08T09:42:27.556Z,37.45
2018-07-08T09:43:36.725Z,37.45
2018-07-08T09:44:46.381Z,37.43
2018-07-08T09:45:55.854Z,37.43
2018-07-08T09:47:05.422Z,37.45
2018-07-08T09:48:14.841Z,37.34
2018-07-08T09:49:23.749Z,37.45
2018-07-08T09:50:33.669Z,37.43
2018-07-08T09:51:43.096Z,37.43
2018-07-08T09:52:52.504Z,37.55
2018-07-08T09:54:01.939Z,37.45
2018-07-08T09:55:11.354Z,37.45
2018-07-08T09:56:20.008Z,37.45
2018-07-08T09:57:29.724Z,37.35
2018-07-08T09:58:39.388Z,37.45
2018-07-08T09:59:48.544Z,37.55
2018-07-08T10:00:57.970Z,37.55
2018-07-08T10:02:06.887Z,37.34
2018-07-08T10:03:16.557Z,37.45
2018-07-08T10:04:25.472Z,37.45
2018-07-08T10:05:35.232Z,37.45
2018-07-08T10:06:44.891Z,37.45
2018-07-08T10:07:54.119Z,37.45
2018-07-08T10:09:03.787Z,37.45
2018-07-08T10:10:13.009Z,37.45
2018-07-08T10:11:22.161Z,37.55
2018-07-08T10:12:31.885Z,37.55
2018-07-08T10:13:41.098Z,37.53
2018-07-08T10:14:51.100Z,37.45
2018-07-08T10:16:00.317Z,37.45
2018-07-08T10:17:09.257Z,37.55
2018-07-08T10:18:18.437Z,37.45
2018-07-08T10:19:27.886Z,37.55
2018-07-08T10:20:38.066Z,37.45
2018-07-08T10:21:47.756Z,37.45
2018-07-08T10:22:57.425Z,37.45
2018-07-08T10:24:06.832Z,37.45
2018-07-08T10:25:16.309Z,37.45
2018-07-08T10:26:26.171Z,37.45
2018-07-08T10:27:35.058Z,37.55
2018-07-08T10:28:44.217Z,37.45
2018-07-08T10:29:53.382Z,37.55
2018-07-08T10:31:02.273Z,37.55
2018-07-08T10:32:11.690Z,37.45
2018-07-08T10:33:21.113Z,37.55
2018-07-08T10:34:30.263Z,37.55
2018-07-08T10:35:38.900Z,37.45
2018-07-08T10:36:48.054Z,37.45
2018-07-08T10:37:56.957Z,37.55
2018-07-08T10:39:06.369Z,37.45
2018-07-08T10:40:16.027Z,37.45
2018-07-08T10:41:25.189Z,37.45
2018-07-08T10:42:34.598Z,37.55
2018-07-08T10:43:44.004Z,37.55
2018-07-08T10:44:52.964Z,37.65
2018-07-08T10:46:02.116Z,37.45
2018-07-08T10:47:11.520Z,37.55
2018-07-08T10:48:20.408Z,37.55
2018-07-08T10:49:29.835Z,37.55
2018-07-08T10:50:38.983Z,37.45
2018-07-08T10:51:48.909Z,37.65
2018-07-08T10:52:58.047Z,37.55
2018-07-08T10:54:07.733Z,37.55
2018-07-08T10:55:17.458Z,37.45
2018-07-08T10:56:27.633Z,37.55
2018-07-08T10:57:37.039Z,37.55
2018-07-08T10:58:46.184Z,37.45
2018-07-08T10:59:55.583Z,37.55
2018-07-08T11:01:05.014Z,37.45
2018-07-08T11:02:14.417Z,37.65
2018-07-08T11:03:24.109Z,37.55
2018-07-08T11:04:34.035Z,37.45
2018-07-08T11:05:43.690Z,37.55
2018-07-08T11:06:52.836Z,37.45
2018-07-08T11:08:02.250Z,37.45
2018-07-08T11:09:12.237Z,37.55
2018-07-08T11:10:21.134Z,37.55
2018-07-08T11:11:30.040Z,37.55
2018-07-08T11:12:39.726Z,37.55
2018-07-08T11:13:48.888Z,37.65
2018-07-08T11:14:58.060Z,37.55
2018-07-08T11:16:07.749Z,37.74
2018-07-08T11:17:17.148Z,37.65
2018-07-08T11:18:26.316Z,37.74
2018-07-08T11:19:35.717Z,37.65
2018-07-08T11:20:45.099Z,37.65
2018-07-08T11:21:54.570Z,37.65
2018-07-08T11:23:03.733Z,37.65
2018-07-08T11:24:13.146Z,37.65
2018-07-08T11:25:22.304Z,37.55
2018-07-08T11:26:31.721Z,37.65
2018-07-08T11:27:41.378Z,37.55
2018-07-08T11:28:50.531Z,37.55
2018-07-08T11:29:59.948Z,37.74
2018-07-08T11:31:08.857Z,37.55
2018-07-08T11:32:18.268Z,37.74
2018-07-08T11:33:27.940Z,37.74
2018-07-08T11:34:36.844Z,37.74
2018-07-08T11:35:45.991Z,37.74
2018-07-08T11:36:55.918Z,37.74
2018-07-08T11:38:05.079Z,37.65
2018-07-08T11:39:14.232Z,37.74
2018-07-08T11:40:23.729Z,37.55
2018-07-08T11:41:33.659Z,37.55
2018-07-08T11:42:43.079Z,37.84
2018-07-08T11:43:52.603Z,37.74
2018-07-08T11:45:02.262Z,37.74
2018-07-08T11:46:11.409Z,37.84
2018-07-08T11:47:20.820Z,37.74
2018-07-08T11:48:29.975Z,37.65
2018-07-08T11:49:39.914Z,37.84
2018-07-08T11:50:49.398Z,37.65
2018-07-08T11:51:58.801Z,37.74
2018-07-08T11:53:08.232Z,37.84
2018-07-08T11:54:17.395Z,37.84
2018-07-08T11:55:27.017Z,37.84
2018-07-08T11:56:37.003Z,37.74
2018-07-08T11:57:46.693Z,37.84
2018-07-08T11:58:56.119Z,37.74
2018-07-08T12:00:05.300Z,37.84
2018-07-08T12:01:14.457Z,37.84
2018-07-08T12:02:24.425Z,37.84
2018-07-08T12:03:33.569Z,37.84
2018-07-08T12:04:42.988Z,37.84
2018-07-08T12:05:52.418Z,37.74
2018-07-08T12:07:01.831Z,37.74
2018-07-08T12:08:11.244Z,37.84
2018-07-08T12:09:20.669Z,37.74
2018-07-08T12:10:30.086Z,37.84
2018-07-08T12:11:39.016Z,37.84
2018-07-08T12:12:48.179Z,37.84
2018-07-08T12:13:57.361Z,37.84
2018-07-08T12:15:06.531Z,37.84
2018-07-08T12:16:16.221Z,37.84
2018-07-08T12:17:25.116Z,37.84
2018-07-08T12:18:34.521Z,37.84
2018-07-08T12:19:44.196Z,37.76
2018-07-08T12:20:54.118Z,37.94
2018-07-08T12:22:03.011Z,37.84
2018-07-08T12:23:12.160Z,37.84
2018-07-08T12:24:21.307Z,37.84
2018-07-08T12:25:31.248Z,37.84
2018-07-08T12:26:41.172Z,37.84
2018-07-08T12:27:50.860Z,37.84
2018-07-08T12:29:00.272Z,37.84
2018-07-08T12:30:09.426Z,37.84
2018-07-08T12:31:19.113Z,37.74
2018-07-08T12:32:28.780Z,37.84
2018-07-08T12:33:38.201Z,37.76
2018-07-08T12:34:47.623Z,37.74
2018-07-08T12:35:57.296Z,37.84
2018-07-08T12:37:06.727Z,37.94
2018-07-08T12:38:15.891Z,37.74
2018-07-08T12:39:25.058Z,37.74
2018-07-08T12:40:34.520Z,37.74
2018-07-08T12:41:43.879Z,37.86
2018-07-08T12:42:52.802Z,37.74
2018-07-08T12:44:02.552Z,37.84
2018-07-08T12:45:11.991Z,37.74
2018-07-08T12:46:21.142Z,37.74
2018-07-08T12:47:30.299Z,37.86
2018-07-08T12:48:39.197Z,37.84
2018-07-08T12:49:48.601Z,37.94
2018-07-08T12:50:57.757Z,37.84
2018-07-08T12:52:07.424Z,37.84
2018-07-08T12:53:16.595Z,37.84
2018-07-08T12:54:25.755Z,37.84
2018-07-08T12:55:35.173Z,37.84
2018-07-08T12:56:44.342Z,37.84
2018-07-08T12:57:54.006Z,37.84
2018-07-08T12:59:03.589Z,37.84
2018-07-08T13:00:13.879Z,37.74
2018-07-08T13:01:23.298Z,37.84
2018-07-08T13:02:33.252Z,37.86
2018-07-08T13:03:41.907Z,37.86
2018-07-08T13:04:51.325Z,37.74
2018-07-08T13:06:00.761Z,37.74
2018-07-08T13:07:10.428Z,37.84
2018-07-08T13:08:20.365Z,37.86
2018-07-08T13:09:29.518Z,37.74
2018-07-08T13:10:39.207Z,37.86
2018-07-08T13:11:48.120Z,37.86
2018-07-08T13:12:57.286Z,37.76
2018-07-08T13:14:06.964Z,37.86
2018-07-08T13:15:16.107Z,37.86
2018-07-08T13:16:25.508Z,37.96
2018-07-08T13:17:35.376Z,37.96
2018-07-08T13:18:44.527Z,37.86
2018-07-08T13:19:54.016Z,37.47
2018-07-08T13:21:04.271Z,38.06
2018-07-08T13:22:13.692Z,37.96
2018-07-08T13:23:23.128Z,38.06
2018-07-08T13:24:32.531Z,38.06
2018-07-08T13:25:41.940Z,37.96
2018-07-08T13:26:51.350Z,37.96
2018-07-08T13:28:00.509Z,38.06
2018-07-08T13:29:10.177Z,37.96
2018-07-08T13:30:19.853Z,37.86
2018-07-08T13:31:29.315Z,38.06
2018-07-08T13:32:38.825Z,38.06
2018-07-08T13:33:48.966Z,37.96
2018-07-08T13:34:58.663Z,37.86
2018-07-08T13:36:07.824Z,37.96
2018-07-08T13:37:17.477Z,38.06
2018-07-08T13:38:26.906Z,37.66
2018-07-08T13:39:36.600Z,38.06
2018-07-08T13:40:45.762Z,37.96
2018-07-08T13:41:54.935Z,37.86
2018-07-08T13:43:04.101Z,38.06
2018-07-08T13:44:13.514Z,37.86
2018-07-08T13:45:23.193Z,38.06
2018-07-08T13:46:32.624Z,38.06
2018-07-08T13:47:42.045Z,37.86
2018-07-08T13:48:51.195Z,37.86
2018-07-08T13:50:00.367Z,37.86
2018-07-08T13:51:10.298Z,37.76
2018-07-08T13:52:19.466Z,37.86
2018-07-08T13:53:29.141Z,37.96
2018-07-08T13:54:38.555Z,37.96
2018-07-08T13:55:47.724Z,37.96
2018-07-08T13:56:56.894Z,38.06
2018-07-08T13:58:06.311Z,38.06
2018-07-08T13:59:14.950Z,37.86
2018-07-08T14:00:24.097Z,37.86
2018-07-08T14:01:33.515Z,38.06
2018-07-08T14:02:42.154Z,38.06
2018-07-08T14:03:51.812Z,38.06
2018-07-08T14:05:01.230Z,37.57
2018-07-08T14:06:11.140Z,37.86
2018-07-08T14:07:19.814Z,37.96
2018-07-08T14:08:29.486Z,38.06
2018-07-08T14:09:38.390Z,37.86
2018-07-08T14:10:48.096Z,37.86
2018-07-08T14:11:57.249Z,37.98
2018-07-08T14:13:06.914Z,38.06
2018-07-08T14:14:15.810Z,37.88
2018-07-08T14:15:25.484Z,37.96
2018-07-08T14:16:34.900Z,37.86
2018-07-08T14:17:44.323Z,37.76
2018-07-08T14:18:53.230Z,37.98
2018-07-08T14:20:02.752Z,37.96
2018-07-08T14:21:12.980Z,37.96
2018-07-08T14:22:22.387Z,37.98
2018-07-08T14:23:31.029Z,37.98
2018-07-08T14:24:40.175Z,38.06
2018-07-08T14:25:49.340Z,37.78
2018-07-08T14:26:58.779Z,37.96
2018-07-08T14:28:07.930Z,38.07
2018-07-08T14:29:17.385Z,38.07
2018-07-08T14:30:27.248Z,37.86
2018-07-08T14:31:36.407Z,38.06
2018-07-08T14:32:45.560Z,37.76
2018-07-08T14:33:54.452Z,37.88
2018-07-08T14:35:03.116Z,38.15
2018-07-08T14:36:12.282Z,37.86
2018-07-08T14:37:21.430Z,38.07
2018-07-08T14:38:30.849Z,37.98
2018-07-08T14:39:40.001Z,37.98
2018-07-08T14:40:50.134Z,38.17
2018-07-08T14:41:59.577Z,37.88
2018-07-08T14:43:08.487Z,38.17
2018-07-08T14:44:18.176Z,38.17
2018-07-08T14:45:27.603Z,37.78
2018-07-08T14:46:36.500Z,38.17
2018-07-08T14:47:46.158Z,38.07
2018-07-08T14:48:55.316Z,37.78
2018-07-08T14:50:04.841Z,38.07
2018-07-08T14:51:13.745Z,38.27
2018-07-08T14:52:22.897Z,38.25
2018-07-08T14:53:32.337Z,38.17
2018-07-08T14:54:41.783Z,37.78